Aérodrome :
LOGIN :

S'inscrire | Disclaimer

   EN    FR    IT 

 










Légende :    VFR   VFR Marginal   IFR   IFR Intensif   IFR Très Intensif
Visi : 
Plafond : 
>= 8 km
>= 3000ft
5 à 8 km
1000 à 3000 ft
1500m à 5 km
500 à 1000 ft
800 à 1500m
200 à 500 ft
< 800m
< 200 ft
Symboles :   Orages  Brouillard  Fortes neiges  Fortes précipitations  Vent > 20 kt
SIGMETs :   Divers  Orages  Givrage  Turbulence  Onde Orograph.  Cendres Volcan.







- Altitude de l'aérodrome : 194 ft
- Code IATA : LME
- Voir les cartes d'approche


LFRM - Le Mans

METARs EXPIRÉS :
  • 241430Z AUTO 23010KT 180V280 CAVOK 26/11 Q1018 NOSIG
  • 241400Z AUTO 25009KT 200V310 9999 FEW049 BKN068 26/11 Q1018 NOSIG
  • 241330Z AUTO 24009KT 200V280 9999 FEW046 BKN066 25/12 Q1018 NOSIG
  • 241300Z AUTO 26010KT 210V310 9999 FEW044 BKN062 25/12 Q1019 NOSIG
  • 241230Z AUTO 23009KT 190V280 9999 FEW042 OVC064 24/13 Q1019 NOSIG
  • 241200Z AUTO 25009KT 190V280 9999 FEW042 BKN062 24/13 Q1019 NOSIG

Prévision TAF périmée.
Pas de NOTAMs connus pour ce terrain.



MET'MAP, la Météo Aéronautique d'un coup d'oeil ! - Copyright ORBIFLY Décembre 2007 - Disclaimer

ORBIFLY MET'MAP TEAM :

Programmation & Développement : Alexandra Zaïnal
Conception & Développement : Baudouin d'Aumeries
Co-Programmation & Développement : Marc-Olivier Méhu
Soutien technique & logistique : Manuel Goepfert

Contact : metmap@orbifly.com




SOURCES & CREDITS :

   NOAA